createdAt,value
2023-04-24T00:10:22.581Z,8.77
2023-04-24T00:14:51.309Z,8.78
2023-04-24T00:19:19.970Z,8.76
2023-04-24T00:23:48.673Z,8.73
2023-04-24T00:28:19.296Z,8.71
2023-04-24T00:45:39.053Z,8.76
2023-04-24T00:50:09.268Z,8.74
2023-04-24T01:11:59.811Z,8.42
2023-04-24T01:16:28.638Z,8.30
2023-04-24T01:21:00.901Z,8.20
2023-04-24T01:38:09.135Z,7.98
2023-04-24T01:42:39.586Z,7.93
2023-04-24T01:46:57.937Z,7.93
2023-04-24T02:04:23.948Z,8.19
2023-04-24T02:21:40.033Z,8.18
2023-04-24T02:43:27.277Z,8.65
2023-04-24T02:47:57.037Z,8.73
2023-04-24T03:05:06.369Z,9.03
2023-04-24T03:09:35.424Z,9.09
2023-04-24T03:14:04.096Z,9.14
2023-04-24T03:18:32.759Z,9.18
2023-04-24T03:40:14.547Z,9.33
2023-04-24T03:44:43.152Z,9.35
2023-04-24T03:49:13.190Z,9.37
2023-04-24T04:07:24.056Z,9.99
2023-04-24T04:11:53.881Z,10.35
2023-04-24T04:16:22.607Z,10.30
2023-04-24T04:20:52.916Z,10.24
2023-04-24T04:38:16.791Z,10.28
2023-04-24T04:42:46.038Z,10.47
2023-04-24T04:47:14.779Z,10.63
2023-04-24T04:51:44.817Z,10.73
2023-04-24T05:13:38.438Z,11.04
2023-04-24T05:18:10.276Z,11.10
2023-04-24T05:35:30.786Z,11.64
2023-04-24T05:43:56.844Z,12.13
2023-04-24T05:48:25.513Z,12.31
2023-04-24T05:52:55.372Z,12.59
2023-04-24T06:16:36.386Z,15.29
2023-04-24T06:21:05.730Z,15.64
2023-04-24T06:25:36.402Z,16.01
2023-04-24T06:42:33.496Z,16.63
2023-04-24T06:47:03.619Z,16.75
2023-04-24T06:51:34.470Z,16.78
2023-04-24T07:17:29.746Z,18.00
2023-04-24T07:21:59.187Z,18.47
2023-04-24T07:26:18.561Z,18.91
2023-04-24T07:30:30.855Z,19.18
2023-04-24T07:35:01.870Z,19.14
2023-04-24T07:38:51.671Z,18.92
2023-04-24T08:19:22.439Z,18.24
2023-04-24T08:23:47.637Z,18.59
2023-04-24T08:28:07.783Z,18.71
2023-04-24T08:31:41.306Z,18.72
2023-04-24T08:36:02.252Z,18.87
2023-04-24T08:39:06.863Z,19.20
2023-04-24T08:43:25.322Z,19.36
2023-04-24T08:54:56.405Z,20.29
2023-04-24T08:58:37.719Z,20.32
2023-04-24T09:02:40.824Z,20.66
2023-04-24T09:38:53.356Z,21.61
2023-04-24T09:43:02.265Z,21.51
2023-04-24T09:47:20.303Z,21.38
2023-04-24T09:51:49.680Z,21.17
2023-04-24T09:56:21.694Z,21.17
2023-04-24T10:17:39.960Z,21.05
2023-04-24T10:21:58.091Z,21.17
2023-04-24T10:26:33.123Z,21.18
2023-04-24T10:31:02.322Z,21.35
2023-04-24T10:34:49.515Z,21.73
2023-04-24T10:38:29.309Z,22.06
2023-04-24T10:41:51.914Z,22.45
2023-04-24T10:45:23.588Z,22.72
2023-04-24T10:49:29.825Z,22.93
2023-04-24T10:52:40.219Z,23.13
2023-04-24T10:56:23.599Z,23.17
2023-04-24T11:00:09.226Z,23.18
2023-04-24T11:04:03.149Z,23.23
2023-04-24T11:08:13.645Z,23.30
2023-04-24T11:12:15.793Z,23.45
2023-04-24T11:15:22.817Z,23.55
2023-04-24T11:19:57.869Z,23.53
2023-04-24T11:23:36.106Z,23.62
2023-04-24T11:27:31.212Z,23.80
2023-04-24T11:32:15.971Z,23.79
2023-04-24T11:35:43.787Z,23.78
2023-04-24T11:39:51.054Z,23.78
2023-04-24T11:43:33.551Z,23.70
2023-04-24T11:47:43.918Z,23.70
2023-04-24T11:52:02.778Z,23.62
2023-04-24T11:56:06.465Z,23.54
2023-04-24T12:00:19.144Z,23.33
2023-04-24T12:04:29.480Z,22.95
2023-04-24T12:13:23.016Z,22.12
2023-04-24T12:38:41.774Z,23.47
2023-04-24T12:42:41.728Z,23.34
2023-04-24T12:47:09.649Z,23.10
2023-04-24T12:51:31.969Z,22.91
2023-04-24T12:55:57.853Z,22.71
2023-04-24T13:00:26.583Z,22.58
2023-04-24T13:25:28.495Z,24.41
2023-04-24T13:29:38.522Z,24.56
2023-04-24T13:32:44.146Z,24.75
2023-04-24T13:36:34.362Z,24.82
2023-04-24T13:40:26.341Z,24.58
2023-04-24T13:44:10.090Z,24.26
2023-04-24T13:47:42.234Z,24.18
2023-04-24T14:11:47.915Z,23.91
2023-04-24T14:15:55.502Z,23.57
2023-04-24T14:20:09.126Z,23.27
2023-04-24T14:24:26.907Z,22.93
2023-04-24T14:36:59.407Z,22.54
2023-04-24T14:41:28.663Z,22.38
2023-04-24T14:45:57.623Z,22.01
2023-04-24T14:54:34.957Z,21.05
2023-04-24T15:11:37.160Z,19.12
2023-04-24T15:16:06.967Z,18.71
2023-04-24T15:33:26.976Z,17.94
2023-04-24T15:37:55.966Z,17.76
2023-04-24T15:59:46.620Z,17.61
2023-04-24T16:04:17.166Z,17.55
2023-04-24T16:08:47.625Z,17.39
2023-04-24T16:13:09.646Z,17.21
2023-04-24T16:30:35.624Z,16.86
2023-04-24T16:35:04.923Z,16.78
2023-04-24T16:39:34.043Z,16.75
2023-04-24T17:02:09.350Z,16.51
2023-04-24T17:06:40.770Z,16.51
2023-04-24T17:24:00.444Z,16.37
2023-04-24T17:28:29.657Z,16.26
2023-04-24T17:32:59.638Z,16.13
2023-04-24T17:54:44.087Z,15.72
2023-04-24T17:59:13.787Z,15.57
2023-04-24T18:16:34.122Z,15.01
2023-04-24T18:21:04.386Z,14.82
2023-04-24T18:29:31.815Z,14.61
2023-04-24T18:34:00.770Z,14.44
2023-04-24T18:55:48.436Z,13.94
2023-04-24T19:00:17.732Z,13.87
2023-04-24T19:17:38.201Z,13.49
2023-04-24T19:22:10.745Z,13.36
2023-04-24T19:39:20.753Z,13.09
2023-04-24T19:43:49.933Z,13.01
2023-04-24T20:01:11.513Z,12.66
2023-04-24T20:05:42.956Z,12.55
2023-04-24T20:27:30.406Z,12.20
2023-04-24T20:31:59.994Z,12.10
2023-04-24T20:49:38.656Z,11.74
2023-04-24T21:11:27.161Z,11.33
2023-04-24T21:15:56.867Z,11.23
2023-04-24T21:20:26.911Z,11.15
2023-04-24T21:42:03.240Z,10.99
2023-04-24T21:50:29.670Z,10.98
2023-04-24T21:54:58.381Z,10.94
2023-04-24T22:21:06.421Z,10.72
2023-04-24T22:25:35.097Z,10.71
2023-04-24T22:42:55.002Z,10.64
2023-04-24T22:47:24.244Z,10.59
2023-04-24T23:04:44.654Z,10.41
2023-04-24T23:09:13.796Z,10.29
2023-04-24T23:13:42.858Z,10.22
2023-04-24T23:35:30.024Z,9.96
2023-04-24T23:43:55.080Z,9.84
2023-04-24T23:48:24.393Z,9.74
